Time;durP1;ratioP1;P1;durP2;ratioP2;P2;SDS_P1;SDS_P2;PMS_P1;PMS_P2;Temp;Humidity;BMP_temperature;BMP_pressure;BME280_temperature;BME280_humidity;BME280_pressure;Samples;Min_cycle;Max_cycle;Signal;HPM_P1;HPM_P2
2023/07/12 00:00:34;;;;;;;7.33;4.33;;;20.30;91.50;;;;;;5018062;28;20710;-73
2023/07/12 00:02:59;;;;;;;7.40;4.00;;;20.30;91.40;;;;;;5018466;28;20857;-74
2023/07/12 00:05:29;;;;;;;7.17;3.70;;;20.30;91.40;;;;;;5022140;28;20437;-74
2023/07/12 00:07:56;;;;;;;6.00;3.37;;;20.40;91.00;;;;;;5019756;28;20221;-73
2023/07/12 00:10:29;;;;;;;4.70;3.40;;;20.40;90.20;;;;;;5018724;28;20868;-74
2023/07/12 00:12:55;;;;;;;8.40;4.00;;;20.40;90.00;;;;;;5020919;28;20437;-73
2023/07/12 00:15:28;;;;;;;9.93;3.60;;;20.50;89.90;;;;;;5021284;28;20474;-74
2023/07/12 00:17:54;;;;;;;7.53;3.33;;;20.50;89.30;;;;;;5021347;28;20630;-75
2023/07/12 00:20:36;;;;;;;5.67;3.40;;;20.50;89.00;;;;;;5019730;28;20494;-73
2023/07/12 00:23:02;;;;;;;4.73;3.03;;;20.60;89.30;;;;;;5028739;28;20447;-73
2023/07/12 00:25:33;;;;;;;4.97;2.93;;;20.60;88.40;;;;;;5014673;28;20456;-75
2023/07/12 00:28:00;;;;;;;7.47;3.00;;;20.60;87.80;;;;;;5013279;28;20442;-73
2023/07/12 00:30:35;;;;;;;5.90;2.73;;;20.70;87.80;;;;;;5012928;28;20492;-74
2023/07/12 00:33:04;;;;;;;4.37;2.93;;;20.70;87.70;;;;;;5027013;28;20437;-74
2023/07/12 00:35:32;;;;;;;4.17;2.60;;;20.80;87.80;;;;;;5014903;28;20434;-74
2023/07/12 00:38:00;;;;;;;7.80;3.60;;;20.80;87.70;;;;;;5025628;28;20448;-74
2023/07/12 00:40:51;;;;;;;4.47;2.90;;;20.80;88.30;;;;;;5018965;28;20462;-73
2023/07/12 00:43:29;;;;;;;5.13;2.53;;;20.90;88.60;;;;;;5020972;28;20427;-76
2023/07/12 00:45:58;;;;;;;5.90;3.17;;;20.90;88.40;;;;;;5014201;28;20453;-76
2023/07/12 00:48:24;;;;;;;5.57;3.77;;;20.90;88.10;;;;;;5013951;28;20461;-76
2023/07/12 00:50:50;;;;;;;8.10;3.27;;;20.90;88.40;;;;;;5025407;28;20489;-74
2023/07/12 00:53:23;;;;;;;4.87;2.90;;;20.90;88.00;;;;;;5028263;28;20441;-74
2023/07/12 00:56:06;;;;;;;5.50;3.13;;;21.00;87.70;;;;;;5014363;28;20191;-73
2023/07/12 00:58:45;;;;;;;5.60;2.80;;;21.00;86.90;;;;;;5016879;28;20439;-73
2023/07/12 01:01:14;;;;;;;5.53;2.50;;;21.00;86.50;;;;;;5015492;28;20540;-76
2023/07/12 01:03:42;;;;;;;6.10;3.30;;;21.00;86.50;;;;;;5020860;28;20488;-74
2023/07/12 01:06:11;;;;;;;6.00;2.90;;;21.00;86.50;;;;;;5019024;28;20435;-74
2023/07/12 01:08:42;;;;;;;5.43;3.10;;;21.00;86.60;;;;;;5023753;28;20486;-75
2023/07/12 01:11:10;;;;;;;6.00;3.07;;;20.90;86.60;;;;;;5016921;28;20909;-75
2023/07/12 01:13:38;;;;;;;6.30;3.30;;;20.90;86.90;;;;;;5029659;28;20424;-75
2023/07/12 01:16:04;;;;;;;4.63;3.00;;;20.90;86.80;;;;;;5017126;28;21075;-73
2023/07/12 01:18:30;;;;;;;6.00;2.87;;;20.90;86.90;;;;;;5020152;28;20898;-74
2023/07/12 01:21:07;;;;;;;6.27;3.40;;;20.90;87.40;;;;;;5016136;28;20208;-74
2023/07/12 01:23:33;;;;;;;6.60;2.70;;;21.00;87.70;;;;;;5018674;28;20487;-74
2023/07/12 01:26:22;;;;;;;4.50;2.83;;;21.00;87.30;;;;;;5018994;28;20428;-74
2023/07/12 01:28:51;;;;;;;8.27;3.37;;;21.10;86.90;;;;;;5015993;28;20195;-74
2023/07/12 01:31:17;;;;;;;5.77;3.33;;;21.00;86.60;;;;;;5026233;28;20526;-75
2023/07/12 01:33:43;;;;;;;4.90;3.30;;;21.00;86.60;;;;;;5023943;28;21004;-75
2023/07/12 01:36:10;;;;;;;6.33;3.17;;;21.10;86.80;;;;;;5020418;28;20489;-74
2023/07/12 01:38:35;;;;;;;4.53;3.03;;;21.10;86.60;;;;;;5029528;28;20461;-74
2023/07/12 01:41:01;;;;;;;6.20;3.17;;;21.20;87.30;;;;;;5021217;28;20502;-75
2023/07/12 01:43:27;;;;;;;4.70;3.33;;;21.20;87.30;;;;;;5022471;28;20197;-74
2023/07/12 01:45:53;;;;;;;8.27;3.53;;;21.20;87.10;;;;;;5017359;28;20303;-74
2023/07/12 01:48:19;;;;;;;6.30;3.70;;;21.20;87.40;;;;;;5014261;28;20526;-74
2023/07/12 01:50:44;;;;;;;7.33;3.33;;;21.20;88.10;;;;;;5016450;28;20242;-74
2023/07/12 01:53:10;;;;;;;4.43;3.00;;;21.20;88.40;;;;;;5026713;28;20270;-75
2023/07/12 01:55:36;;;;;;;6.33;3.40;;;21.10;88.40;;;;;;5028456;28;20195;-73
2023/07/12 01:58:01;;;;;;;6.60;3.73;;;21.00;88.00;;;;;;5022460;28;20250;-75
2023/07/12 02:00:27;;;;;;;3.40;2.80;;;20.80;88.10;;;;;;5028196;28;20218;-73
2023/07/12 02:02:52;;;;;;;7.93;3.50;;;20.70;88.30;;;;;;5039578;28;20198;-74
2023/07/12 02:05:18;;;;;;;5.00;3.07;;;20.70;88.00;;;;;;5035838;28;20195;-74
2023/07/12 02:07:44;;;;;;;6.30;3.33;;;20.70;87.70;;;;;;5034203;28;20195;-73
2023/07/12 02:10:19;;;;;;;4.70;3.17;;;20.70;87.80;;;;;;5019604;28;20230;-73
2023/07/12 02:12:45;;;;;;;4.50;3.00;;;20.70;87.70;;;;;;5023630;28;20444;-73
2023/07/12 02:15:12;;;;;;;7.00;3.33;;;20.80;88.10;;;;;;5015460;28;20541;-74
2023/07/12 02:17:39;;;;;;;6.23;3.50;;;20.90;88.40;;;;;;5017794;28;20944;-76
2023/07/12 02:20:06;;;;;;;4.37;3.13;;;20.80;88.00;;;;;;5023807;28;20479;-76
2023/07/12 02:22:34;;;;;;;6.10;3.77;;;20.80;88.30;;;;;;5027851;28;20466;-75
2023/07/12 02:25:00;;;;;;;7.10;3.63;;;20.90;88.70;;;;;;5023917;28;20473;-75
2023/07/12 02:27:26;;;;;;;5.47;3.40;;;20.90;88.70;;;;;;5021428;28;20524;-74
2023/07/12 02:29:52;;;;;;;5.30;3.47;;;21.00;89.00;;;;;;5021223;28;20572;-77
2023/07/12 02:32:18;;;;;;;6.27;4.27;;;21.00;89.00;;;;;;5012411;28;20828;-75
2023/07/12 02:34:43;;;;;;;4.00;3.10;;;21.00;89.20;;;;;;5021744;28;20546;-75
2023/07/12 02:37:09;;;;;;;7.10;3.57;;;21.00;89.20;;;;;;5017542;28;20224;-76
2023/07/12 02:39:35;;;;;;;8.13;4.00;;;21.00;88.70;;;;;;5016491;28;20467;-75
2023/07/12 02:42:00;;;;;;;7.27;3.70;;;21.00;88.70;;;;;;5023676;28;20337;-75
2023/07/12 02:44:26;;;;;;;8.27;4.20;;;21.00;88.40;;;;;;5025372;28;20720;-76
2023/07/12 02:46:51;;;;;;;5.97;3.77;;;20.90;88.10;;;;;;5012436;28;20210;-74
2023/07/12 02:49:18;;;;;;;6.17;3.47;;;20.90;88.00;;;;;;5020766;28;20219;-75
2023/07/12 02:51:44;;;;;;;6.37;3.40;;;20.90;87.80;;;;;;5017607;28;20252;-75
2023/07/12 02:54:09;;;;;;;6.60;3.60;;;20.90;87.80;;;;;;5026004;28;20465;-77
2023/07/12 02:56:35;;;;;;;7.33;4.00;;;20.80;87.60;;;;;;5020453;28;20229;-75
2023/07/12 02:59:01;;;;;;;7.17;3.67;;;20.70;86.90;;;;;;5028930;28;20194;-75
2023/07/12 03:01:33;;;;;;;9.50;3.77;;;20.80;86.80;;;;;;5024168;28;20218;-75
2023/07/12 03:03:59;;;;;;;6.87;3.93;;;20.80;86.00;;;;;;5028929;28;20195;-75
2023/07/12 03:06:24;;;;;;;9.20;3.47;;;20.90;85.70;;;;;;5016940;28;20446;-75
2023/07/12 03:08:50;;;;;;;7.67;4.07;;;20.90;85.00;;;;;;5016875;28;20200;-75
2023/07/12 03:11:16;;;;;;;5.97;3.77;;;20.90;84.70;;;;;;5014251;28;20227;-76
2023/07/12 03:13:41;;;;;;;6.67;4.10;;;20.90;84.70;;;;;;5019415;28;20194;-75
2023/07/12 03:16:08;;;;;;;7.23;4.10;;;20.90;84.70;;;;;;5011447;28;20192;-77
2023/07/12 03:18:35;;;;;;;6.67;3.40;;;20.90;84.70;;;;;;5015419;28;20733;-76
2023/07/12 03:21:02;;;;;;;8.13;3.83;;;20.80;85.00;;;;;;5021861;28;20506;-76
2023/07/12 03:23:32;;;;;;;5.60;3.80;;;20.80;85.00;;;;;;5023532;28;20437;-76
2023/07/12 03:25:59;;;;;;;9.67;4.17;;;20.80;84.90;;;;;;5017318;28;20446;-76
2023/07/12 03:28:25;;;;;;;11.07;3.60;;;20.80;84.60;;;;;;5018970;28;20468;-75
2023/07/12 03:31:10;;;;;;;6.00;3.73;;;20.80;84.70;;;;;;5026576;28;20951;-77
2023/07/12 03:33:36;;;;;;;6.40;3.87;;;20.90;84.60;;;;;;5025764;28;20446;-76
2023/07/12 03:36:02;;;;;;;8.00;4.60;;;20.90;84.40;;;;;;5026711;28;20433;-76
2023/07/12 03:38:30;;;;;;;7.60;3.70;;;20.80;84.40;;;;;;5021129;28;20442;-76
2023/07/12 03:40:58;;;;;;;6.93;4.00;;;20.80;84.40;;;;;;5027706;28;20455;-76
2023/07/12 03:43:24;;;;;;;6.67;3.90;;;20.80;84.10;;;;;;5022732;28;20469;-73
2023/07/12 03:45:50;;;;;;;5.40;3.90;;;20.80;84.00;;;;;;5024225;28;20500;-75
2023/07/12 03:48:16;;;;;;;7.87;4.47;;;20.90;84.30;;;;;;5027508;28;20450;-78
2023/07/12 03:50:42;;;;;;;6.07;3.43;;;20.90;83.60;;;;;;5036241;28;20496;-76
2023/07/12 03:53:08;;;;;;;4.77;3.77;;;21.00;82.80;;;;;;5031485;28;20190;-77
2023/07/12 03:55:39;;;;;;;6.97;3.87;;;21.10;82.50;;;;;;5022982;28;20451;-76
2023/07/12 03:58:04;;;;;;;9.13;5.40;;;21.10;82.40;;;;;;5014842;28;20198;-76
2023/07/12 04:00:30;;;;;;;5.57;3.83;;;21.20;81.90;;;;;;5016488;28;20494;-76
2023/07/12 04:02:56;;;;;;;12.47;4.90;;;21.20;81.80;;;;;;5025902;28;20202;-75
2023/07/12 04:05:21;;;;;;;8.00;4.50;;;21.20;81.80;;;;;;5019276;28;20200;-77
2023/07/12 04:07:47;;;;;;;10.93;4.57;;;21.20;81.50;;;;;;5015614;28;20306;-76
2023/07/12 04:10:12;;;;;;;6.30;3.90;;;21.20;81.70;;;;;;5017096;28;20865;-76
2023/07/12 04:12:38;;;;;;;8.13;3.87;;;21.20;81.80;;;;;;5023074;28;20197;-76
2023/07/12 04:15:05;;;;;;;13.83;4.60;;;21.20;81.80;;;;;;5019835;28;20306;-75
2023/07/12 04:17:30;;;;;;;7.37;3.90;;;21.20;81.80;;;;;;5027955;28;20445;-76
2023/07/12 04:19:56;;;;;;;7.00;3.90;;;21.20;81.80;;;;;;5023997;28;20643;-75
2023/07/12 04:22:21;;;;;;;8.07;4.23;;;21.20;81.50;;;;;;5030563;28;20181;-76
2023/07/12 04:24:53;;;;;;;11.53;4.40;;;21.30;81.50;;;;;;5023185;28;20186;-75
2023/07/12 04:27:19;;;;;;;7.87;4.33;;;21.30;81.10;;;;;;5023389;28;20191;-75
2023/07/12 04:29:45;;;;;;;7.57;3.97;;;21.40;80.90;;;;;;5024894;28;21205;-74
2023/07/12 04:32:11;;;;;;;13.07;4.87;;;21.40;80.50;;;;;;5026714;28;20176;-75
2023/07/12 04:34:37;;;;;;;10.67;4.10;;;21.40;80.50;;;;;;5024335;28;20483;-76
2023/07/12 04:37:04;;;;;;;8.43;4.13;;;21.50;80.50;;;;;;5023532;28;20437;-73
2023/07/12 04:39:29;;;;;;;7.97;4.10;;;21.60;80.00;;;;;;5017889;28;20427;-73
2023/07/12 04:41:55;;;;;;;9.37;4.77;;;21.60;79.60;;;;;;5025936;28;21042;-74
2023/07/12 04:44:21;;;;;;;6.80;4.20;;;21.70;79.60;;;;;;5023397;28;20285;-73
2023/07/12 04:46:46;;;;;;;10.20;4.33;;;21.70;79.30;;;;;;5023938;28;20204;-74
2023/07/12 04:49:12;;;;;;;11.40;5.20;;;21.80;78.70;;;;;;5025795;28;20454;-73
2023/07/12 04:51:38;;;;;;;10.60;4.70;;;21.80;78.60;;;;;;5024109;28;20208;-73
2023/07/12 04:54:03;;;;;;;7.70;4.20;;;21.90;78.40;;;;;;5024702;28;20987;-74
2023/07/12 04:56:29;;;;;;;14.33;4.20;;;21.90;78.40;;;;;;5017011;28;20198;-72
2023/07/12 04:58:55;;;;;;;11.93;4.80;;;22.00;78.30;;;;;;5020622;28;20196;-74
2023/07/12 05:01:21;;;;;;;9.20;4.43;;;22.00;78.30;;;;;;5020227;28;20263;-74
2023/07/12 05:03:47;;;;;;;11.40;4.17;;;22.00;78.40;;;;;;5021679;28;20479;-73
2023/07/12 05:06:13;;;;;;;11.97;4.27;;;22.10;78.30;;;;;;5021196;28;20465;-73
2023/07/12 05:08:39;;;;;;;9.23;4.57;;;22.10;78.60;;;;;;5030758;28;20199;-74
2023/07/12 05:11:05;;;;;;;8.60;3.87;;;22.10;78.70;;;;;;5019534;28;20502;-73
2023/07/12 05:13:30;;;;;;;8.57;4.90;;;22.10;78.70;;;;;;5027500;28;20200;-74
2023/07/12 05:15:56;;;;;;;13.57;5.40;;;22.10;78.90;;;;;;5020587;28;20201;-75
2023/07/12 05:18:22;;;;;;;8.97;4.57;;;22.10;79.00;;;;;;5025344;28;20691;-75
2023/07/12 05:20:52;;;;;;;15.40;5.07;;;22.10;78.90;;;;;;5019813;28;20312;-73
2023/07/12 05:23:18;;;;;;;10.87;4.70;;;22.20;78.90;;;;;;5023613;28;20459;-75
2023/07/12 05:25:51;;;;;;;8.77;5.40;;;22.20;78.90;;;;;;5020287;28;20474;-74
2023/07/12 05:28:17;;;;;;;14.43;5.43;;;22.20;79.00;;;;;;5024258;28;20430;-74
2023/07/12 05:30:43;;;;;;;12.13;5.40;;;22.30;79.00;;;;;;5021707;28;21303;-74
2023/07/12 05:33:09;;;;;;;9.50;5.53;;;22.30;79.00;;;;;;5022700;28;20446;-75
2023/07/12 05:35:35;;;;;;;12.97;6.00;;;22.30;79.00;;;;;;5023907;28;20200;-73
2023/07/12 05:38:00;;;;;;;11.20;5.30;;;22.30;78.90;;;;;;5027010;28;20442;-74
2023/07/12 05:40:27;;;;;;;11.80;5.60;;;22.30;79.20;;;;;;5028111;28;20204;-75
2023/07/12 05:42:52;;;;;;;6.40;5.30;;;22.40;79.30;;;;;;5026190;28;20184;-75
2023/07/12 05:45:18;;;;;;;11.17;5.53;;;22.40;79.00;;;;;;5024143;28;20458;-74
2023/07/12 05:47:47;;;;;;;10.53;5.30;;;22.40;78.90;;;;;;5025768;28;20208;-75
2023/07/12 05:50:14;;;;;;;7.93;5.97;;;22.50;79.00;;;;;;5024836;28;20408;-75
2023/07/12 05:52:40;;;;;;;9.43;5.57;;;22.50;78.90;;;;;;5024556;28;20665;-75
2023/07/12 05:55:07;;;;;;;11.67;6.37;;;22.50;79.00;;;;;;5021503;28;20542;-74
2023/07/12 05:57:33;;;;;;;8.63;5.67;;;22.50;79.00;;;;;;5020679;28;20246;-76
2023/07/12 06:00:00;;;;;;;9.23;5.53;;;22.60;79.20;;;;;;5020551;28;20477;-76
2023/07/12 06:02:27;;;;;;;14.43;6.53;;;22.60;79.00;;;;;;5033189;28;20252;-74
2023/07/12 06:04:52;;;;;;;8.80;5.53;;;22.70;78.70;;;;;;5022858;28;20436;-74
2023/07/12 06:07:18;;;;;;;9.40;6.20;;;22.70;78.70;;;;;;5015889;28;20450;-75
2023/07/12 06:09:44;;;;;;;14.10;6.70;;;22.70;78.70;;;;;;5018403;28;20228;-75
2023/07/12 06:12:10;;;;;;;15.73;6.90;;;22.80;78.70;;;;;;5024238;28;20437;-75
2023/07/12 06:14:37;;;;;;;9.17;5.50;;;22.80;78.70;;;;;;5020248;28;20203;-76
2023/07/12 06:17:03;;;;;;;12.43;6.20;;;22.80;78.40;;;;;;5019372;28;20437;-75
2023/07/12 06:19:29;;;;;;;8.90;6.13;;;22.90;78.40;;;;;;5019020;28;20485;-75
2023/07/12 06:21:55;;;;;;;11.20;6.00;;;22.80;78.90;;;;;;5020319;28;20447;-75
2023/07/12 06:24:20;;;;;;;16.83;6.90;;;22.80;78.90;;;;;;5026015;28;20566;-74
2023/07/12 06:26:46;;;;;;;9.60;6.23;;;22.80;79.20;;;;;;5018727;28;20194;-76
2023/07/12 06:29:12;;;;;;;13.73;6.80;;;22.80;79.00;;;;;;5021210;28;20192;-75
2023/07/12 06:31:37;;;;;;;11.30;6.77;;;22.80;79.20;;;;;;5021046;28;20258;-74
2023/07/12 06:34:03;;;;;;;10.53;5.50;;;22.90;79.00;;;;;;5022997;28;20208;-74
2023/07/12 06:36:32;;;;;;;10.37;5.90;;;23.00;78.60;;;;;;5026229;28;20677;-76
2023/07/12 06:38:57;;;;;;;15.70;6.60;;;23.10;78.30;;;;;;5022825;28;20443;-75
2023/07/12 06:41:23;;;;;;;12.30;6.27;;;23.20;77.70;;;;;;5017633;28;20553;-75
2023/07/12 06:43:49;;;;;;;12.20;6.13;;;23.30;77.40;;;;;;5023994;28;20192;-76
2023/07/12 06:46:15;;;;;;;15.70;6.40;;;23.40;77.40;;;;;;5021616;28;20200;-75
2023/07/12 06:48:40;;;;;;;10.77;5.73;;;23.60;76.40;;;;;;5031272;28;20203;-74
2023/07/12 06:51:06;;;;;;;10.77;5.80;;;23.70;75.70;;;;;;5026229;28;20504;-75
2023/07/12 06:53:32;;;;;;;8.33;5.10;;;23.70;75.50;;;;;;5027011;28;20197;-74
2023/07/12 06:55:57;;;;;;;10.83;5.50;;;23.80;75.10;;;;;;5021087;28;20191;-74
2023/07/12 06:58:23;;;;;;;11.83;6.17;;;23.90;74.60;;;;;;5027044;28;20244;-74
2023/07/12 07:00:49;;;;;;;6.77;4.80;;;24.00;73.90;;;;;;5022412;28;20763;-74
2023/07/12 07:03:16;;;;;;;10.70;6.10;;;24.10;73.60;;;;;;5028323;28;20434;-75
2023/07/12 07:05:47;;;;;;;12.50;6.03;;;24.20;72.90;;;;;;5021907;28;20620;-75
2023/07/12 07:08:16;;;;;;;9.77;5.50;;;24.30;72.00;;;;;;5025633;28;20435;-75
2023/07/12 07:10:43;;;;;;;8.70;5.70;;;24.30;72.10;;;;;;5020979;28;20604;-75
2023/07/12 07:13:09;;;;;;;12.07;6.30;;;24.40;71.60;;;;;;5029020;28;20517;-74
2023/07/12 07:15:35;;;;;;;9.90;5.40;;;24.40;71.70;;;;;;5037691;28;20442;-74
2023/07/12 07:18:01;;;;;;;11.13;5.80;;;24.40;70.80;;;;;;5026380;28;20441;-73
2023/07/12 07:20:27;;;;;;;9.50;4.97;;;24.40;70.50;;;;;;5017763;28;20532;-75
2023/07/12 07:22:53;;;;;;;10.90;5.40;;;24.40;70.10;;;;;;5024193;28;20188;-75
2023/07/12 07:25:19;;;;;;;8.93;4.77;;;24.30;69.10;;;;;;5017216;28;20915;-74
2023/07/12 07:27:45;;;;;;;8.53;5.20;;;24.40;69.10;;;;;;5026990;28;20208;-73
2023/07/12 07:30:11;;;;;;;11.63;6.00;;;24.40;70.10;;;;;;5017934;28;20229;-74
2023/07/12 07:32:37;;;;;;;9.53;4.60;;;24.40;69.20;;;;;;5026165;28;20478;-76
2023/07/12 07:35:03;;;;;;;13.73;5.60;;;24.40;69.10;;;;;;5023815;28;20486;-76
2023/07/12 07:37:29;;;;;;;8.20;5.60;;;24.50;69.20;;;;;;5020151;28;20598;-74
2023/07/12 07:39:55;;;;;;;7.50;4.87;;;24.60;68.80;;;;;;5022222;28;20475;-75
2023/07/12 07:42:21;;;;;;;16.43;5.90;;;24.60;68.50;;;;;;5026375;28;20448;-78
2023/07/12 07:44:46;;;;;;;11.47;4.90;;;24.60;68.60;;;;;;5031717;28;20214;-75
2023/07/12 07:47:12;;;;;;;9.73;5.53;;;24.60;68.30;;;;;;5017734;28;20199;-76
2023/07/12 07:49:38;;;;;;;7.90;4.80;;;24.70;67.90;;;;;;5013267;28;20216;-76
2023/07/12 07:52:04;;;;;;;7.50;4.57;;;24.80;68.30;;;;;;5020624;28;20217;-75
2023/07/12 07:54:30;;;;;;;7.77;5.00;;;24.90;67.50;;;;;;5027608;28;20237;-77
2023/07/12 07:56:56;;;;;;;10.33;5.10;;;24.90;67.50;;;;;;5031146;28;20935;-77
2023/07/12 07:59:22;;;;;;;9.43;5.47;;;25.00;67.20;;;;;;5028085;28;20189;-75
2023/07/12 08:01:47;;;;;;;11.23;5.10;;;25.00;67.00;;;;;;5019497;28;20198;-76
2023/07/12 08:04:13;;;;;;;9.90;4.70;;;25.00;66.70;;;;;;5025028;28;20265;-75
2023/07/12 08:06:39;;;;;;;9.60;5.70;;;24.90;67.30;;;;;;5016163;28;20212;-77
2023/07/12 08:09:06;;;;;;;11.10;5.30;;;24.90;67.60;;;;;;5024565;28;20204;-75
2023/07/12 08:11:31;;;;;;;11.43;5.80;;;25.00;66.70;;;;;;5025935;28;20496;-76
2023/07/12 08:13:57;;;;;;;10.83;4.80;;;25.00;66.70;;;;;;5024649;28;20780;-78
2023/07/12 08:16:26;;;;;;;14.17;6.07;;;25.10;67.60;;;;;;5030489;28;20462;-76
2023/07/12 08:18:52;;;;;;;10.30;6.37;;;25.20;67.50;;;;;;5026411;28;20192;-77
2023/07/12 08:21:18;;;;;;;8.53;5.67;;;25.20;67.60;;;;;;5022937;28;20467;-75
2023/07/12 08:23:43;;;;;;;9.27;5.03;;;25.30;66.90;;;;;;5023431;28;20440;-76
2023/07/12 08:26:09;;;;;;;7.60;4.87;;;25.40;67.20;;;;;;5017196;28;20206;-78
2023/07/12 08:28:34;;;;;;;9.67;5.43;;;25.40;66.00;;;;;;5022433;28;20245;-77
2023/07/12 08:31:00;;;;;;;7.93;4.50;;;25.40;65.70;;;;;;5016441;28;20720;-76
2023/07/12 08:33:26;;;;;;;14.40;5.50;;;25.30;65.80;;;;;;5029409;28;20198;-77
2023/07/12 08:35:51;;;;;;;7.20;4.40;;;25.40;64.40;;;;;;5022366;28;20220;-77
2023/07/12 08:38:18;;;;;;;10.60;5.90;;;25.50;64.20;;;;;;5023432;28;20674;-75
2023/07/12 08:40:48;;;;;;;9.83;5.27;;;25.60;63.90;;;;;;5018418;28;20585;-77
2023/07/12 08:43:24;;;;;;;9.13;5.70;;;25.70;64.10;;;;;;5023864;28;20544;-76
2023/07/12 08:45:53;;;;;;;7.20;4.77;;;25.60;63.80;;;;;;5024991;28;20458;-77
2023/07/12 08:48:24;;;;;;;7.60;5.23;;;25.80;64.10;;;;;;5023010;28;20440;-76
2023/07/12 08:50:50;;;;;;;5.90;4.30;;;25.70;63.40;;;;;;5018172;28;20917;-75
2023/07/12 08:53:23;;;;;;;10.10;5.13;;;25.70;63.90;;;;;;5019697;28;20419;-75
2023/07/12 08:55:49;;;;;;;9.40;4.87;;;25.80;63.40;;;;;;5017545;28;20446;-76
2023/07/12 08:58:34;;;;;;;9.20;4.70;;;25.80;62.60;;;;;;5023279;28;20445;-76
2023/07/12 09:01:09;;;;;;;7.20;4.67;;;25.90;62.30;;;;;;5022970;28;20593;-76
2023/07/12 09:03:34;;;;;;;9.00;4.77;;;26.10;62.30;;;;;;5027042;28;20530;-78
2023/07/12 09:06:00;;;;;;;10.00;4.47;;;26.00;63.40;;;;;;5023675;28;20443;-76
2023/07/12 09:08:36;;;;;;;7.87;4.60;;;26.10;63.40;;;;;;5028004;28;20693;-76
2023/07/12 09:11:02;;;;;;;8.90;5.20;;;26.20;63.50;;;;;;5021139;28;20926;-76
2023/07/12 09:13:36;;;;;;;9.00;5.00;;;26.40;63.50;;;;;;5026016;28;20448;-77
2023/07/12 09:16:03;;;;;;;7.47;4.40;;;26.40;63.10;;;;;;5027827;28;20444;-76
2023/07/12 09:18:37;;;;;;;7.13;4.40;;;26.50;63.40;;;;;;5020711;28;20431;-77
2023/07/12 09:21:20;;;;;;;8.80;4.00;;;26.50;63.40;;;;;;5017281;28;20478;-76
2023/07/12 09:23:46;;;;;;;8.17;4.47;;;26.80;61.30;;;;;;5021495;28;20493;-76
2023/07/12 09:26:22;;;;;;;7.20;4.20;;;26.80;61.30;;;;;;5019494;28;20444;-76
2023/07/12 09:28:50;;;;;;;7.87;4.17;;;27.00;61.20;;;;;;5022332;28;20234;-77
2023/07/12 09:31:27;;;;;;;6.67;4.10;;;27.00;61.70;;;;;;5019820;28;20493;-76
2023/07/12 09:33:59;;;;;;;5.63;3.70;;;27.10;61.20;;;;;;5024687;28;20439;-77
2023/07/12 09:36:25;;;;;;;6.20;4.40;;;27.10;61.00;;;;;;5017357;28;20448;-78
2023/07/12 09:38:51;;;;;;;10.03;4.63;;;27.10;61.20;;;;;;5021433;28;20436;-75
2023/07/12 09:41:24;;;;;;;10.03;3.93;;;27.20;61.00;;;;;;5025296;28;20210;-76
2023/07/12 09:44:00;;;;;;;8.57;4.23;;;27.20;60.60;;;;;;5029200;28;20203;-78
2023/07/12 09:46:29;;;;;;;5.83;3.80;;;27.30;60.00;;;;;;5022993;28;20446;-75
2023/07/12 09:48:57;;;;;;;7.43;4.53;;;27.30;60.30;;;;;;5026387;28;20958;-76
2023/07/12 09:52:02;;;;;;;8.67;4.40;;;27.30;60.70;;;;;;5019807;28;20493;-78
2023/07/12 09:54:49;;;;;;;7.23;3.83;;;27.30;59.90;;;;;;5026748;28;20785;-75
2023/07/12 09:57:39;;;;;;;9.90;4.70;;;27.10;59.90;;;;;;5017265;28;20769;-75
2023/07/12 10:00:23;;;;;;;9.70;4.43;;;27.00;59.90;;;;;;5020348;28;20473;-75
2023/07/12 10:03:00;;;;;;;8.53;4.43;;;27.10;59.60;;;;;;5029332;28;20428;-76
2023/07/12 10:05:26;;;;;;;7.30;3.93;;;27.20;59.60;;;;;;5017325;28;20427;-77
2023/07/12 10:08:05;;;;;;;5.97;4.07;;;27.40;59.10;;;;;;5022457;28;20530;-76
2023/07/12 10:10:40;;;;;;;7.70;4.30;;;27.60;58.70;;;;;;5019176;28;20216;-75
2023/07/12 10:13:12;;;;;;;5.53;3.73;;;27.90;57.80;;;;;;5022153;28;20432;-76
2023/07/12 10:15:40;;;;;;;7.53;4.03;;;27.80;57.30;;;;;;5016946;28;20531;-76
2023/07/12 10:18:10;;;;;;;5.93;4.13;;;27.80;57.00;;;;;;5014232;28;20437;-74
2023/07/12 10:20:35;;;;;;;8.80;4.50;;;28.00;57.30;;;;;;5017011;28;20468;-76
2023/07/12 10:23:03;;;;;;;8.60;4.60;;;28.40;56.80;;;;;;5023382;28;20951;-74
2023/07/12 10:25:33;;;;;;;6.93;4.37;;;28.60;55.40;;;;;;5024018;28;20185;-76
2023/07/12 10:28:17;;;;;;;5.87;4.10;;;28.50;55.30;;;;;;5019924;28;20425;-76
2023/07/12 10:30:46;;;;;;;6.70;3.83;;;29.00;54.90;;;;;;5028294;28;20487;-76
2023/07/12 10:33:30;;;;;;;7.53;3.90;;;29.20;54.20;;;;;;5031444;28;20431;-75
2023/07/12 10:36:01;;;;;;;7.63;4.23;;;28.80;54.90;;;;;;5032213;28;20443;-76
2023/07/12 10:38:26;;;;;;;9.03;4.80;;;28.80;55.30;;;;;;5022032;28;20443;-74
2023/07/12 10:41:20;;;;;;;8.57;4.37;;;28.90;55.00;;;;;;5028540;28;20463;-74
2023/07/12 10:43:49;;;;;;;5.90;4.30;;;29.00;55.20;;;;;;5030579;28;20201;-75
2023/07/12 10:46:24;;;;;;;7.50;4.20;;;29.30;54.40;;;;;;5022695;28;20445;-73
2023/07/12 10:48:51;;;;;;;11.13;4.20;;;29.00;54.10;;;;;;5028765;28;20424;-74
2023/07/12 10:51:37;;;;;;;9.07;4.90;;;28.90;54.40;;;;;;5024623;28;20525;-75
2023/07/12 10:54:04;;;;;;;7.70;4.60;;;28.90;54.90;;;;;;5025093;28;20444;-73
2023/07/12 10:56:49;;;;;;;7.53;4.47;;;29.40;53.60;;;;;;5026764;28;20439;-76
2023/07/12 10:59:33;;;;;;;5.73;4.13;;;29.50;53.00;;;;;;5019010;28;20432;-75
2023/07/12 11:02:04;;;;;;;8.40;4.53;;;29.40;52.10;;;;;;5034799;28;20444;-76
2023/07/12 11:04:29;;;;;;;10.13;5.10;;;29.20;52.90;;;;;;5016506;28;20445;-76
2023/07/12 11:07:04;;;;;;;11.77;5.10;;;29.50;52.20;;;;;;5018093;28;20436;-75
2023/07/12 11:09:42;;;;;;;9.00;4.70;;;29.70;52.20;;;;;;5018289;28;20186;-76
2023/07/12 11:12:09;;;;;;;9.30;4.50;;;29.70;51.60;;;;;;5032072;28;20436;-76
2023/07/12 11:14:37;;;;;;;7.33;4.50;;;29.30;52.20;;;;;;5030351;28;20436;-77
2023/07/12 11:17:06;;;;;;;8.77;4.33;;;29.40;53.20;;;;;;5024401;28;20441;-75
2023/07/12 11:19:41;;;;;;;9.67;5.07;;;29.80;52.90;;;;;;5022772;28;20416;-78
2023/07/12 11:22:55;;;;;;;11.53;4.80;;;29.80;51.60;;;;;;5028496;28;20426;-76
2023/07/12 11:25:32;;;;;;;10.60;4.87;;;29.90;50.30;;;;;;5019452;28;20444;-76
2023/07/12 11:28:02;;;;;;;7.43;4.97;;;30.20;51.20;;;;;;5025941;28;20626;-77
2023/07/12 11:30:28;;;;;;;9.37;4.53;;;30.40;50.10;;;;;;5033620;28;20515;-77
2023/07/12 11:33:22;;;;;;;7.33;4.70;;;30.20;50.30;;;;;;5032397;28;20438;-78
2023/07/12 11:36:06;;;;;;;8.50;4.87;;;30.10;51.30;;;;;;5032887;28;20198;-77
2023/07/12 11:38:34;;;;;;;8.97;5.00;;;30.40;50.60;;;;;;5024874;28;20510;-78
2023/07/12 11:41:15;;;;;;;13.27;4.90;;;30.60;49.40;;;;;;5029115;28;20638;-75
2023/07/12 11:43:41;;;;;;;8.90;4.93;;;30.80;48.30;;;;;;5028567;28;20431;-76
2023/07/12 11:46:19;;;;;;;9.80;5.20;;;30.20;50.60;;;;;;5021920;28;20444;-77
2023/07/12 11:48:59;;;;;;;10.27;4.90;;;30.40;49.80;;;;;;5020412;28;20200;-78
2023/07/12 11:51:35;;;;;;;7.57;5.00;;;30.90;49.30;;;;;;5018672;28;20476;-77
2023/07/12 11:54:02;;;;;;;7.20;4.90;;;30.70;49.80;;;;;;5028840;28;20427;-77
2023/07/12 11:56:28;;;;;;;10.10;6.10;;;30.90;49.30;;;;;;5019089;28;20940;-75
2023/07/12 11:58:54;;;;;;;11.30;5.53;;;30.90;49.10;;;;;;5025207;28;20433;-77
2023/07/12 12:01:22;;;;;;;8.67;4.80;;;30.90;48.30;;;;;;5025638;28;20705;-76
2023/07/12 12:03:51;;;;;;;8.73;5.60;;;30.80;47.90;;;;;;5028786;28;20428;-76
2023/07/12 12:06:19;;;;;;;7.37;4.90;;;30.30;48.70;;;;;;5025095;28;20434;-76
2023/07/12 12:08:54;;;;;;;7.67;4.30;;;30.00;47.80;;;;;;5021339;28;20441;-77
2023/07/12 12:11:21;;;;;;;9.40;5.00;;;30.30;47.10;;;;;;5014678;28;20495;-76
2023/07/12 12:13:50;;;;;;;7.27;5.47;;;29.90;48.10;;;;;;5024645;28;20539;-77
2023/07/12 12:16:31;;;;;;;8.93;5.90;;;29.70;49.30;;;;;;5028263;28;20440;-77
2023/07/12 12:18:59;;;;;;;7.30;4.87;;;29.80;49.30;;;;;;5027964;28;20510;-77
2023/07/12 12:21:26;;;;;;;9.10;5.00;;;30.40;48.30;;;;;;5033173;28;20483;-77
2023/07/12 12:23:54;;;;;;;6.80;4.63;;;31.10;46.10;;;;;;5030731;28;20432;-77
2023/07/12 12:26:27;;;;;;;9.93;5.40;;;31.50;46.10;;;;;;5029685;28;20416;-77
2023/07/12 12:29:13;;;;;;;10.00;4.70;;;31.60;45.40;;;;;;5025991;28;20958;-76
2023/07/12 12:32:04;;;;;;;7.60;5.20;;;31.30;44.70;;;;;;5024142;28;20488;-78
2023/07/12 12:34:43;;;;;;;10.47;5.70;;;31.40;44.70;;;;;;5018458;28;20421;-77
2023/07/12 12:37:11;;;;;;;8.80;5.20;;;30.90;47.90;;;;;;5019643;28;20423;-76
2023/07/12 12:39:37;;;;;;;10.60;5.70;;;30.40;50.50;;;;;;5018543;28;20421;-77
2023/07/12 12:42:16;;;;;;;7.43;5.10;;;30.20;51.00;;;;;;5028314;28;20432;-77
2023/07/12 12:44:41;;;;;;;8.43;5.40;;;30.20;51.20;;;;;;5021709;28;20416;-76
2023/07/12 12:47:19;;;;;;;8.03;5.07;;;30.80;47.90;;;;;;5015715;28;20503;-76
2023/07/12 12:49:45;;;;;;;7.80;5.50;;;30.50;47.00;;;;;;5018475;28;20233;-76
2023/07/12 12:52:29;;;;;;;8.47;4.90;;;31.00;48.20;;;;;;5024237;28;20456;-76
2023/07/12 12:55:00;;;;;;;7.60;5.07;;;31.30;48.30;;;;;;5018857;28;20437;-76